sensor_id;sensor_type;location;lat;lon;timestamp;P1;durP1;ratioP1;P2;durP2;ratioP2
41946;SDS011;27638;42.184;24.848;2022-12-18T09:56:43;14.77;;;9.70;;
41946;SDS011;27638;42.184;24.848;2022-12-18T09:59:18;11.70;;;8.43;;
41946;SDS011;27638;42.184;24.848;2022-12-18T10:04:39;18.30;;;11.02;;
41946;SDS011;27638;42.184;24.848;2022-12-18T10:10:26;12.68;;;8.30;;
41946;SDS011;27638;42.184;24.848;2022-12-18T10:21:21;12.15;;;9.20;;
41946;SDS011;27638;42.184;24.848;2022-12-18T10:24:03;14.25;;;10.30;;
41946;SDS011;27638;42.184;24.848;2022-12-18T10:26:36;20.05;;;11.13;;
41946;SDS011;27638;42.184;24.848;2022-12-18T10:29:03;19.45;;;11.02;;
41946;SDS011;27638;42.184;24.848;2022-12-18T10:31:36;16.58;;;10.13;;
41946;SDS011;27638;42.184;24.848;2022-12-18T10:34:01;16.25;;;10.15;;
41946;SDS011;27638;42.184;24.848;2022-12-18T10:36:26;21.15;;;12.10;;
41946;SDS011;27638;42.184;24.848;2022-12-18T10:38:52;18.48;;;11.82;;
41946;SDS011;27638;42.184;24.848;2022-12-18T10:43:44;20.05;;;11.75;;
41946;SDS011;27638;42.184;24.848;2022-12-18T10:51:25;17.13;;;9.52;;
41946;SDS011;27638;42.184;24.848;2022-12-18T10:53:54;14.82;;;8.65;;
41946;SDS011;27638;42.184;24.848;2022-12-18T10:56:21;15.88;;;8.45;;
41946;SDS011;27638;42.184;24.848;2022-12-18T10:58:55;15.18;;;8.60;;
41946;SDS011;27638;42.184;24.848;2022-12-18T11:01:25;13.27;;;8.65;;
41946;SDS011;27638;42.184;24.848;2022-12-18T11:06:20;12.85;;;8.00;;
41946;SDS011;27638;42.184;24.848;2022-12-18T11:08:59;12.07;;;7.78;;
41946;SDS011;27638;42.184;24.848;2022-12-18T11:11:29;13.80;;;8.90;;
41946;SDS011;27638;42.184;24.848;2022-12-18T11:14:04;12.70;;;7.78;;
41946;SDS011;27638;42.184;24.848;2022-12-18T11:16:36;13.70;;;8.15;;
41946;SDS011;27638;42.184;24.848;2022-12-18T11:19:54;11.98;;;7.65;;
41946;SDS011;27638;42.184;24.848;2022-12-18T11:22:01;18.00;;;10.82;;
41946;SDS011;27638;42.184;24.848;2022-12-18T11:25:30;18.23;;;11.15;;
41946;SDS011;27638;42.184;24.848;2022-12-18T11:27:37;23.13;;;12.93;;
41946;SDS011;27638;42.184;24.848;2022-12-18T11:30:13;25.17;;;12.48;;
41946;SDS011;27638;42.184;24.848;2022-12-18T11:32:46;27.15;;;13.13;;
41946;SDS011;27638;42.184;24.848;2022-12-18T11:35:24;25.45;;;13.88;;
41946;SDS011;27638;42.184;24.848;2022-12-18T11:37:53;20.77;;;12.02;;
41946;SDS011;27638;42.184;24.848;2022-12-18T11:40:35;18.55;;;10.82;;
41946;SDS011;27638;42.184;24.848;2022-12-18T11:45:55;21.40;;;11.50;;
41946;SDS011;27638;42.184;24.848;2022-12-18T11:51:04;19.15;;;10.38;;
41946;SDS011;27638;42.184;24.848;2022-12-18T11:53:36;18.70;;;11.57;;
41946;SDS011;27638;42.184;24.848;2022-12-18T12:04:24;19.50;;;12.48;;
41946;SDS011;27638;42.184;24.848;2022-12-18T12:09:39;26.45;;;13.95;;
41946;SDS011;27638;42.184;24.848;2022-12-18T12:14:40;18.85;;;11.90;;
41946;SDS011;27638;42.184;24.848;2022-12-18T12:17:27;25.27;;;13.07;;
41946;SDS011;27638;42.184;24.848;2022-12-18T12:37:08;41.65;;;30.90;;
41946;SDS011;27638;42.184;24.848;2022-12-18T12:41:57;17.73;;;11.63;;
41946;SDS011;27638;42.184;24.848;2022-12-18T12:44:46;15.88;;;10.00;;
41946;SDS011;27638;42.184;24.848;2022-12-18T12:47:29;18.13;;;9.93;;
41946;SDS011;27638;42.184;24.848;2022-12-18T12:49:59;17.98;;;11.18;;
41946;SDS011;27638;42.184;24.848;2022-12-18T12:52:29;19.08;;;12.23;;
41946;SDS011;27638;42.184;24.848;2022-12-18T12:54:59;16.02;;;10.70;;
41946;SDS011;27638;42.184;24.848;2022-12-18T12:57:37;18.38;;;10.07;;
41946;SDS011;27638;42.184;24.848;2022-12-18T13:00:11;16.13;;;9.93;;
41946;SDS011;27638;42.184;24.848;2022-12-18T13:02:48;17.30;;;9.82;;
41946;SDS011;27638;42.184;24.848;2022-12-18T13:05:29;19.00;;;11.23;;
41946;SDS011;27638;42.184;24.848;2022-12-18T13:08:03;18.52;;;11.32;;
41946;SDS011;27638;42.184;24.848;2022-12-18T13:20:48;24.02;;;12.52;;
41946;SDS011;27638;42.184;24.848;2022-12-18T13:26:33;29.38;;;15.77;;
41946;SDS011;27638;42.184;24.848;2022-12-18T13:31:11;82.70;;;38.83;;
41946;SDS011;27638;42.184;24.848;2022-12-18T13:33:38;68.38;;;32.65;;
41946;SDS011;27638;42.184;24.848;2022-12-18T13:36:12;69.43;;;38.75;;
41946;SDS011;27638;42.184;24.848;2022-12-18T13:38:47;44.85;;;25.85;;
41946;SDS011;27638;42.184;24.848;2022-12-18T13:41:32;45.75;;;24.25;;
41946;SDS011;27638;42.184;24.848;2022-12-18T13:46:49;65.93;;;37.25;;
41946;SDS011;27638;42.184;24.848;2022-12-18T13:49:23;21.55;;;12.57;;
41946;SDS011;27638;42.184;24.848;2022-12-18T13:51:53;16.67;;;10.45;;
41946;SDS011;27638;42.184;24.848;2022-12-18T13:54:36;14.65;;;9.80;;
41946;SDS011;27638;42.184;24.848;2022-12-18T13:57:05;15.38;;;9.88;;
41946;SDS011;27638;42.184;24.848;2022-12-18T13:59:50;20.05;;;11.07;;
41946;SDS011;27638;42.184;24.848;2022-12-18T14:02:17;33.45;;;19.25;;
41946;SDS011;27638;42.184;24.848;2022-12-18T14:04:47;27.10;;;16.48;;
41946;SDS011;27638;42.184;24.848;2022-12-18T14:07:16;26.13;;;14.80;;
41946;SDS011;27638;42.184;24.848;2022-12-18T14:09:53;24.38;;;14.05;;
41946;SDS011;27638;42.184;24.848;2022-12-18T14:12:31;24.00;;;14.38;;
41946;SDS011;27638;42.184;24.848;2022-12-18T14:17:48;28.33;;;16.20;;
41946;SDS011;27638;42.184;24.848;2022-12-18T14:20:15;30.90;;;18.80;;
41946;SDS011;27638;42.184;24.848;2022-12-18T14:22:45;32.08;;;19.08;;
41946;SDS011;27638;42.184;24.848;2022-12-18T14:27:37;32.55;;;20.85;;
41946;SDS011;27638;42.184;24.848;2022-12-18T14:30:29;25.38;;;16.33;;
41946;SDS011;27638;42.184;24.848;2022-12-18T14:35:52;24.42;;;15.23;;
41946;SDS011;27638;42.184;24.848;2022-12-18T14:38:38;23.75;;;14.45;;
41946;SDS011;27638;42.184;24.848;2022-12-18T14:43:34;21.38;;;12.27;;
41946;SDS011;27638;42.184;24.848;2022-12-18T14:46:00;18.92;;;11.30;;
41946;SDS011;27638;42.184;24.848;2022-12-18T14:51:02;19.55;;;11.30;;
41946;SDS011;27638;42.184;24.848;2022-12-18T14:53:36;15.65;;;9.50;;
41946;SDS011;27638;42.184;24.848;2022-12-18T14:56:11;18.60;;;10.65;;
41946;SDS011;27638;42.184;24.848;2022-12-18T14:58:38;20.38;;;12.27;;
41946;SDS011;27638;42.184;24.848;2022-12-18T15:01:04;25.17;;;15.10;;
41946;SDS011;27638;42.184;24.848;2022-12-18T15:03:30;36.67;;;19.30;;
41946;SDS011;27638;42.184;24.848;2022-12-18T15:05:56;37.33;;;20.33;;
41946;SDS011;27638;42.184;24.848;2022-12-18T15:08:41;41.40;;;24.83;;
41946;SDS011;27638;42.184;24.848;2022-12-18T15:11:27;46.65;;;25.48;;
41946;SDS011;27638;42.184;24.848;2022-12-18T15:13:53;42.47;;;23.15;;
41946;SDS011;27638;42.184;24.848;2022-12-18T15:16:18;42.42;;;24.10;;
41946;SDS011;27638;42.184;24.848;2022-12-18T15:18:44;62.63;;;32.83;;
41946;SDS011;27638;42.184;24.848;2022-12-18T15:21:15;52.05;;;27.90;;
41946;SDS011;27638;42.184;24.848;2022-12-18T15:26:09;26.10;;;13.85;;
41946;SDS011;27638;42.184;24.848;2022-12-18T15:28:47;35.10;;;20.17;;
41946;SDS011;27638;42.184;24.848;2022-12-18T15:36:21;30.17;;;15.32;;
41946;SDS011;27638;42.184;24.848;2022-12-18T15:38:52;29.42;;;15.60;;
41946;SDS011;27638;42.184;24.848;2022-12-18T15:41:20;23.10;;;13.32;;
41946;SDS011;27638;42.184;24.848;2022-12-18T15:43:51;19.98;;;10.90;;
41946;SDS011;27638;42.184;24.848;2022-12-18T15:46:18;22.08;;;12.07;;
41946;SDS011;27638;42.184;24.848;2022-12-18T15:48:49;20.83;;;13.82;;
41946;SDS011;27638;42.184;24.848;2022-12-18T15:51:16;41.22;;;20.90;;
41946;SDS011;27638;42.184;24.848;2022-12-18T15:53:54;37.80;;;20.23;;
41946;SDS011;27638;42.184;24.848;2022-12-18T15:56:21;34.38;;;18.35;;
41946;SDS011;27638;42.184;24.848;2022-12-18T15:59:13;17.63;;;11.20;;
41946;SDS011;27638;42.184;24.848;2022-12-18T16:01:41;23.05;;;12.93;;
41946;SDS011;27638;42.184;24.848;2022-12-18T16:04:11;17.10;;;10.63;;
41946;SDS011;27638;42.184;24.848;2022-12-18T16:06:38;18.60;;;10.75;;
41946;SDS011;27638;42.184;24.848;2022-12-18T16:09:04;15.95;;;10.15;;
41946;SDS011;27638;42.184;24.848;2022-12-18T16:11:30;21.25;;;11.55;;
41946;SDS011;27638;42.184;24.848;2022-12-18T16:14:25;22.20;;;12.55;;
41946;SDS011;27638;42.184;24.848;2022-12-18T16:16:55;15.13;;;10.40;;
41946;SDS011;27638;42.184;24.848;2022-12-18T16:19:22;18.92;;;12.15;;
41946;SDS011;27638;42.184;24.848;2022-12-18T16:21:49;21.13;;;12.20;;
41946;SDS011;27638;42.184;24.848;2022-12-18T16:24:20;18.88;;;10.68;;
41946;SDS011;27638;42.184;24.848;2022-12-18T16:26:48;18.92;;;10.43;;
41946;SDS011;27638;42.184;24.848;2022-12-18T16:29:16;16.10;;;10.23;;
41946;SDS011;27638;42.184;24.848;2022-12-18T16:31:42;17.90;;;10.93;;
41946;SDS011;27638;42.184;24.848;2022-12-18T16:36:36;20.77;;;12.40;;
41946;SDS011;27638;42.184;24.848;2022-12-18T16:39:01;17.83;;;11.20;;
41946;SDS011;27638;42.184;24.848;2022-12-18T16:41:27;15.35;;;9.60;;
41946;SDS011;27638;42.184;24.848;2022-12-18T16:43:56;11.88;;;7.65;;
41946;SDS011;27638;42.184;24.848;2022-12-18T16:46:21;14.32;;;9.10;;
41946;SDS011;27638;42.184;24.848;2022-12-18T16:48:47;16.70;;;10.32;;
41946;SDS011;27638;42.184;24.848;2022-12-18T16:51:12;18.80;;;11.43;;
41946;SDS011;27638;42.184;24.848;2022-12-18T16:53:38;16.35;;;10.38;;
41946;SDS011;27638;42.184;24.848;2022-12-18T16:56:03;15.50;;;9.95;;
41946;SDS011;27638;42.184;24.848;2022-12-18T16:58:29;15.93;;;8.88;;
41946;SDS011;27638;42.184;24.848;2022-12-18T17:00:54;13.82;;;8.77;;
41946;SDS011;27638;42.184;24.848;2022-12-18T17:03:19;13.80;;;8.05;;
41946;SDS011;27638;42.184;24.848;2022-12-18T17:05:45;16.42;;;9.35;;
41946;SDS011;27638;42.184;24.848;2022-12-18T17:08:10;17.08;;;10.15;;
41946;SDS011;27638;42.184;24.848;2022-12-18T17:10:36;17.98;;;10.05;;
41946;SDS011;27638;42.184;24.848;2022-12-18T17:13:01;15.02;;;8.05;;
41946;SDS011;27638;42.184;24.848;2022-12-18T17:15:27;12.13;;;6.63;;
41946;SDS011;27638;42.184;24.848;2022-12-18T17:17:52;10.27;;;6.93;;
41946;SDS011;27638;42.184;24.848;2022-12-18T17:20:18;11.93;;;7.72;;
41946;SDS011;27638;42.184;24.848;2022-12-18T17:22:43;15.80;;;9.32;;
41946;SDS011;27638;42.184;24.848;2022-12-18T17:25:09;11.10;;;7.03;;
41946;SDS011;27638;42.184;24.848;2022-12-18T17:27:34;15.98;;;8.98;;
41946;SDS011;27638;42.184;24.848;2022-12-18T17:30:00;13.75;;;8.52;;
41946;SDS011;27638;42.184;24.848;2022-12-18T17:32:25;17.38;;;9.55;;
41946;SDS011;27638;42.184;24.848;2022-12-18T17:34:50;16.02;;;10.20;;
41946;SDS011;27638;42.184;24.848;2022-12-18T17:37:16;12.13;;;9.73;;
41946;SDS011;27638;42.184;24.848;2022-12-18T17:39:41;12.52;;;8.55;;
41946;SDS011;27638;42.184;24.848;2022-12-18T17:42:07;10.10;;;6.22;;
41946;SDS011;27638;42.184;24.848;2022-12-18T17:44:34;15.90;;;8.48;;
41946;SDS011;27638;42.184;24.848;2022-12-18T17:47:00;15.60;;;9.77;;
41946;SDS011;27638;42.184;24.848;2022-12-18T17:49:26;17.58;;;10.40;;
41946;SDS011;27638;42.184;24.848;2022-12-18T17:51:51;17.60;;;11.25;;
41946;SDS011;27638;42.184;24.848;2022-12-18T17:54:17;17.13;;;10.10;;
41946;SDS011;27638;42.184;24.848;2022-12-18T17:56:43;13.73;;;8.27;;
41946;SDS011;27638;42.184;24.848;2022-12-18T17:59:08;12.27;;;6.75;;
41946;SDS011;27638;42.184;24.848;2022-12-18T18:01:34;14.73;;;8.38;;
41946;SDS011;27638;42.184;24.848;2022-12-18T18:03:59;15.77;;;7.70;;
41946;SDS011;27638;42.184;24.848;2022-12-18T18:06:26;12.55;;;7.18;;
41946;SDS011;27638;42.184;24.848;2022-12-18T18:08:52;14.77;;;8.95;;
41946;SDS011;27638;42.184;24.848;2022-12-18T18:11:18;12.60;;;8.73;;
41946;SDS011;27638;42.184;24.848;2022-12-18T18:14:05;13.43;;;8.13;;
41946;SDS011;27638;42.184;24.848;2022-12-18T18:16:37;19.92;;;11.05;;
41946;SDS011;27638;42.184;24.848;2022-12-18T18:19:08;16.58;;;9.05;;
41946;SDS011;27638;42.184;24.848;2022-12-18T18:21:39;17.23;;;10.68;;
41946;SDS011;27638;42.184;24.848;2022-12-18T18:24:07;18.25;;;11.52;;
41946;SDS011;27638;42.184;24.848;2022-12-18T18:26:34;15.23;;;9.90;;
41946;SDS011;27638;42.184;24.848;2022-12-18T18:29:01;18.08;;;10.27;;
41946;SDS011;27638;42.184;24.848;2022-12-18T18:31:29;15.65;;;9.45;;
41946;SDS011;27638;42.184;24.848;2022-12-18T18:33:55;16.55;;;10.00;;
41946;SDS011;27638;42.184;24.848;2022-12-18T18:36:21;19.10;;;9.85;;
41946;SDS011;27638;42.184;24.848;2022-12-18T18:38:48;17.95;;;12.00;;
41946;SDS011;27638;42.184;24.848;2022-12-18T18:41:14;20.42;;;10.30;;
41946;SDS011;27638;42.184;24.848;2022-12-18T18:43:40;18.73;;;12.07;;
41946;SDS011;27638;42.184;24.848;2022-12-18T18:46:06;24.65;;;15.55;;
41946;SDS011;27638;42.184;24.848;2022-12-18T18:48:32;24.92;;;15.52;;
41946;SDS011;27638;42.184;24.848;2022-12-18T18:51:04;20.98;;;11.82;;
41946;SDS011;27638;42.184;24.848;2022-12-18T18:53:35;27.58;;;17.00;;
41946;SDS011;27638;42.184;24.848;2022-12-18T18:56:02;25.38;;;11.98;;
41946;SDS011;27638;42.184;24.848;2022-12-18T18:58:28;24.85;;;14.35;;
41946;SDS011;27638;42.184;24.848;2022-12-18T19:01:01;27.67;;;16.42;;
41946;SDS011;27638;42.184;24.848;2022-12-18T19:03:29;25.52;;;14.48;;
41946;SDS011;27638;42.184;24.848;2022-12-18T19:05:55;29.85;;;15.30;;
41946;SDS011;27638;42.184;24.848;2022-12-18T19:08:24;31.20;;;18.20;;
41946;SDS011;27638;42.184;24.848;2022-12-18T19:10:54;28.88;;;15.75;;
41946;SDS011;27638;42.184;24.848;2022-12-18T19:13:22;30.98;;;16.00;;
41946;SDS011;27638;42.184;24.848;2022-12-18T19:15:51;32.05;;;19.05;;
41946;SDS011;27638;42.184;24.848;2022-12-18T19:18:18;30.55;;;18.02;;
41946;SDS011;27638;42.184;24.848;2022-12-18T19:20:52;27.20;;;13.90;;
41946;SDS011;27638;42.184;24.848;2022-12-18T19:23:18;31.80;;;15.52;;
41946;SDS011;27638;42.184;24.848;2022-12-18T19:25:44;19.83;;;12.02;;
41946;SDS011;27638;42.184;24.848;2022-12-18T19:28:09;24.95;;;13.73;;
41946;SDS011;27638;42.184;24.848;2022-12-18T19:30:36;28.30;;;12.50;;
41946;SDS011;27638;42.184;24.848;2022-12-18T19:33:03;24.63;;;14.32;;
41946;SDS011;27638;42.184;24.848;2022-12-18T19:35:29;27.48;;;14.75;;
41946;SDS011;27638;42.184;24.848;2022-12-18T19:37:54;21.48;;;13.55;;
41946;SDS011;27638;42.184;24.848;2022-12-18T19:40:20;21.00;;;12.30;;
41946;SDS011;27638;42.184;24.848;2022-12-18T19:42:45;20.08;;;10.13;;
41946;SDS011;27638;42.184;24.848;2022-12-18T19:45:10;30.20;;;14.82;;
41946;SDS011;27638;42.184;24.848;2022-12-18T19:47:36;23.58;;;15.32;;
41946;SDS011;27638;42.184;24.848;2022-12-18T19:50:02;26.10;;;14.73;;
41946;SDS011;27638;42.184;24.848;2022-12-18T19:52:27;24.73;;;13.60;;
41946;SDS011;27638;42.184;24.848;2022-12-18T19:54:53;32.17;;;14.23;;
41946;SDS011;27638;42.184;24.848;2022-12-18T19:57:18;35.97;;;17.77;;
41946;SDS011;27638;42.184;24.848;2022-12-18T19:59:44;35.60;;;16.17;;
41946;SDS011;27638;42.184;24.848;2022-12-18T20:02:11;30.25;;;16.20;;
41946;SDS011;27638;42.184;24.848;2022-12-18T20:04:37;25.33;;;13.13;;
41946;SDS011;27638;42.184;24.848;2022-12-18T20:07:02;28.15;;;15.93;;
41946;SDS011;27638;42.184;24.848;2022-12-18T20:09:28;29.10;;;15.57;;
41946;SDS011;27638;42.184;24.848;2022-12-18T20:11:54;28.95;;;15.95;;
41946;SDS011;27638;42.184;24.848;2022-12-18T20:14:19;32.38;;;16.60;;
41946;SDS011;27638;42.184;24.848;2022-12-18T20:16:45;33.97;;;17.40;;
41946;SDS011;27638;42.184;24.848;2022-12-18T20:19:10;35.75;;;17.17;;
41946;SDS011;27638;42.184;24.848;2022-12-18T20:21:36;31.35;;;16.73;;
41946;SDS011;27638;42.184;24.848;2022-12-18T20:24:02;28.33;;;14.80;;
41946;SDS011;27638;42.184;24.848;2022-12-18T20:26:28;32.25;;;15.98;;
41946;SDS011;27638;42.184;24.848;2022-12-18T20:28:53;31.25;;;16.48;;
41946;SDS011;27638;42.184;24.848;2022-12-18T20:31:20;36.13;;;18.70;;
41946;SDS011;27638;42.184;24.848;2022-12-18T20:33:45;35.58;;;17.20;;
41946;SDS011;27638;42.184;24.848;2022-12-18T20:36:12;35.42;;;17.15;;
41946;SDS011;27638;42.184;24.848;2022-12-18T20:38:40;32.33;;;15.75;;
41946;SDS011;27638;42.184;24.848;2022-12-18T20:41:08;29.33;;;14.65;;
41946;SDS011;27638;42.184;24.848;2022-12-18T20:43:35;35.35;;;18.00;;
41946;SDS011;27638;42.184;24.848;2022-12-18T20:46:02;33.63;;;15.65;;
41946;SDS011;27638;42.184;24.848;2022-12-18T20:48:29;29.65;;;13.98;;
41946;SDS011;27638;42.184;24.848;2022-12-18T20:51:05;40.30;;;20.73;;
41946;SDS011;27638;42.184;24.848;2022-12-18T20:53:38;31.08;;;16.25;;
41946;SDS011;27638;42.184;24.848;2022-12-18T20:56:05;39.45;;;18.20;;
41946;SDS011;27638;42.184;24.848;2022-12-18T20:58:31;35.35;;;16.48;;
41946;SDS011;27638;42.184;24.848;2022-12-18T21:03:34;34.95;;;17.70;;
41946;SDS011;27638;42.184;24.848;2022-12-18T21:05:59;36.63;;;17.77;;
41946;SDS011;27638;42.184;24.848;2022-12-18T21:08:24;29.85;;;15.15;;
41946;SDS011;27638;42.184;24.848;2022-12-18T21:10:50;35.05;;;15.77;;
41946;SDS011;27638;42.184;24.848;2022-12-18T21:13:15;34.17;;;16.27;;
41946;SDS011;27638;42.184;24.848;2022-12-18T21:15:41;32.28;;;16.70;;
41946;SDS011;27638;42.184;24.848;2022-12-18T21:18:06;37.30;;;17.05;;
41946;SDS011;27638;42.184;24.848;2022-12-18T21:20:32;36.63;;;18.40;;
41946;SDS011;27638;42.184;24.848;2022-12-18T21:22:57;32.80;;;16.75;;
41946;SDS011;27638;42.184;24.848;2022-12-18T21:25:26;37.35;;;17.15;;
41946;SDS011;27638;42.184;24.848;2022-12-18T21:27:52;42.63;;;20.02;;
41946;SDS011;27638;42.184;24.848;2022-12-18T21:30:18;36.47;;;18.27;;
41946;SDS011;27638;42.184;24.848;2022-12-18T21:32:43;33.28;;;15.70;;
41946;SDS011;27638;42.184;24.848;2022-12-18T21:35:08;36.33;;;16.65;;
41946;SDS011;27638;42.184;24.848;2022-12-18T21:37:34;33.13;;;17.35;;
41946;SDS011;27638;42.184;24.848;2022-12-18T21:39:59;34.70;;;16.98;;
41946;SDS011;27638;42.184;24.848;2022-12-18T21:42:25;38.20;;;18.83;;
41946;SDS011;27638;42.184;24.848;2022-12-18T21:45:09;34.00;;;17.02;;
41946;SDS011;27638;42.184;24.848;2022-12-18T21:47:36;36.00;;;20.23;;
41946;SDS011;27638;42.184;24.848;2022-12-18T21:50:01;43.85;;;21.33;;
41946;SDS011;27638;42.184;24.848;2022-12-18T21:52:27;36.20;;;17.00;;
41946;SDS011;27638;42.184;24.848;2022-12-18T21:54:53;32.92;;;17.95;;
41946;SDS011;27638;42.184;24.848;2022-12-18T21:57:18;32.08;;;17.55;;
41946;SDS011;27638;42.184;24.848;2022-12-18T21:59:43;38.38;;;18.38;;
41946;SDS011;27638;42.184;24.848;2022-12-18T22:02:13;35.30;;;16.90;;
41946;SDS011;27638;42.184;24.848;2022-12-18T22:04:40;33.25;;;15.88;;
41946;SDS011;27638;42.184;24.848;2022-12-18T22:07:07;38.70;;;18.88;;
41946;SDS011;27638;42.184;24.848;2022-12-18T22:09:33;38.33;;;19.88;;
41946;SDS011;27638;42.184;24.848;2022-12-18T22:11:59;31.98;;;12.52;;
41946;SDS011;27638;42.184;24.848;2022-12-18T22:14:24;31.90;;;16.02;;
41946;SDS011;27638;42.184;24.848;2022-12-18T22:16:51;32.83;;;16.90;;
41946;SDS011;27638;42.184;24.848;2022-12-18T22:19:17;38.90;;;17.90;;
41946;SDS011;27638;42.184;24.848;2022-12-18T22:21:44;33.78;;;17.27;;
41946;SDS011;27638;42.184;24.848;2022-12-18T22:24:12;32.00;;;16.67;;
41946;SDS011;27638;42.184;24.848;2022-12-18T22:26:46;34.92;;;17.85;;
41946;SDS011;27638;42.184;24.848;2022-12-18T22:29:12;34.22;;;17.10;;
41946;SDS011;27638;42.184;24.848;2022-12-18T22:31:58;37.97;;;18.65;;
41946;SDS011;27638;42.184;24.848;2022-12-18T22:34:24;32.78;;;16.33;;
41946;SDS011;27638;42.184;24.848;2022-12-18T22:36:49;38.17;;;17.65;;
41946;SDS011;27638;42.184;24.848;2022-12-18T22:39:16;37.75;;;19.08;;
41946;SDS011;27638;42.184;24.848;2022-12-18T22:41:47;31.85;;;17.35;;
41946;SDS011;27638;42.184;24.848;2022-12-18T22:44:13;37.25;;;17.92;;
41946;SDS011;27638;42.184;24.848;2022-12-18T22:46:39;42.13;;;17.73;;
41946;SDS011;27638;42.184;24.848;2022-12-18T22:49:08;38.80;;;20.00;;
41946;SDS011;27638;42.184;24.848;2022-12-18T22:51:37;37.67;;;16.92;;
41946;SDS011;27638;42.184;24.848;2022-12-18T22:54:02;42.42;;;20.42;;
41946;SDS011;27638;42.184;24.848;2022-12-18T22:56:28;38.72;;;18.25;;
41946;SDS011;27638;42.184;24.848;2022-12-18T22:58:53;42.55;;;19.23;;
41946;SDS011;27638;42.184;24.848;2022-12-18T23:01:23;37.33;;;18.13;;
41946;SDS011;27638;42.184;24.848;2022-12-18T23:03:51;37.95;;;16.48;;
41946;SDS011;27638;42.184;24.848;2022-12-18T23:06:17;42.40;;;19.15;;
41946;SDS011;27638;42.184;24.848;2022-12-18T23:08:48;38.55;;;19.27;;
41946;SDS011;27638;42.184;24.848;2022-12-18T23:11:14;42.42;;;20.67;;
41946;SDS011;27638;42.184;24.848;2022-12-18T23:13:41;38.65;;;16.30;;
41946;SDS011;27638;42.184;24.848;2022-12-18T23:16:08;41.10;;;19.17;;
41946;SDS011;27638;42.184;24.848;2022-12-18T23:18:35;32.67;;;16.50;;
41946;SDS011;27638;42.184;24.848;2022-12-18T23:21:12;38.53;;;18.83;;
41946;SDS011;27638;42.184;24.848;2022-12-18T23:23:39;39.42;;;18.10;;
41946;SDS011;27638;42.184;24.848;2022-12-18T23:26:09;37.33;;;17.60;;
41946;SDS011;27638;42.184;24.848;2022-12-18T23:28:37;39.45;;;17.30;;
41946;SDS011;27638;42.184;24.848;2022-12-18T23:31:11;35.30;;;17.88;;
41946;SDS011;27638;42.184;24.848;2022-12-18T23:33:38;35.55;;;17.88;;
41946;SDS011;27638;42.184;24.848;2022-12-18T23:36:04;39.78;;;17.80;;
41946;SDS011;27638;42.184;24.848;2022-12-18T23:38:30;33.40;;;16.80;;
41946;SDS011;27638;42.184;24.848;2022-12-18T23:40:57;32.33;;;17.30;;
41946;SDS011;27638;42.184;24.848;2022-12-18T23:43:23;32.60;;;16.83;;
41946;SDS011;27638;42.184;24.848;2022-12-18T23:45:50;30.38;;;16.77;;
41946;SDS011;27638;42.184;24.848;2022-12-18T23:48:16;33.85;;;16.45;;
41946;SDS011;27638;42.184;24.848;2022-12-18T23:50:41;33.65;;;16.77;;
41946;SDS011;27638;42.184;24.848;2022-12-18T23:53:07;33.83;;;16.80;;
41946;SDS011;27638;42.184;24.848;2022-12-18T23:55:40;29.90;;;15.13;;
41946;SDS011;27638;42.184;24.848;2022-12-18T23:58:07;25.07;;;13.93;;
